createdAt,value
2019-04-26T00:02:12.499Z,99003.02
2019-04-26T00:07:31.102Z,99006.77
2019-04-26T00:12:51.362Z,99027.09
2019-04-26T00:18:11.348Z,99030.25
2019-04-26T00:23:30.777Z,99023.20
2019-04-26T00:28:49.654Z,99031.16
2019-04-26T00:34:08.353Z,99026.61
2019-04-26T00:39:26.915Z,99031.44
2019-04-26T00:44:45.639Z,99063.67
2019-04-26T00:50:06.030Z,99076.63
2019-04-26T00:55:24.830Z,99077.48
2019-04-26T01:00:43.614Z,99079.72
2019-04-26T01:06:03.894Z,99087.83
2019-04-26T01:11:22.431Z,99075.03
2019-04-26T01:16:41.231Z,99093.23
2019-04-26T01:22:02.773Z,99100.81
2019-04-26T01:27:25.437Z,99093.45
2019-04-26T01:32:45.493Z,99093.02
2019-04-26T01:38:07.572Z,99100.16
2019-04-26T01:43:30.853Z,99097.30
2019-04-26T01:48:55.105Z,99104.28
2019-04-26T01:54:16.614Z,99110.61
2019-04-26T01:59:38.774Z,99109.89
2019-04-26T02:05:05.479Z,99112.41
2019-04-26T02:10:26.561Z,99119.04
2019-04-26T02:15:45.272Z,99112.17
2019-04-26T02:21:08.426Z,99131.05
2019-04-26T02:26:40.786Z,99133.25
2019-04-26T02:32:02.313Z,99123.52
2019-04-26T02:37:20.952Z,99108.48
2019-04-26T02:42:42.456Z,99148.08
2019-04-26T02:48:17.651Z,99142.70
2019-04-26T02:53:41.921Z,99123.97
2019-04-26T02:59:05.977Z,99122.27
2019-04-26T03:04:26.836Z,99113.28
2019-04-26T03:09:46.891Z,99127.06
2019-04-26T03:15:13.803Z,99127.57
2019-04-26T03:20:36.385Z,99139.66
2019-04-26T03:26:19.737Z,99165.09
2019-04-26T03:31:58.035Z,99162.78
2019-04-26T03:37:42.630Z,99158.73
2019-04-26T03:43:23.819Z,99169.81
2019-04-26T03:49:18.931Z,99148.19
2019-04-26T03:54:40.987Z,99129.63
2019-04-26T04:00:04.258Z,99161.44
2019-04-26T04:05:37.895Z,99183.13
2019-04-26T04:10:59.536Z,99177.87
2019-04-26T04:16:42.787Z,99163.81
2019-04-26T04:22:19.132Z,99174.03
2019-04-26T04:27:47.901Z,99189.27
2019-04-26T04:33:27.688Z,99193.79
2019-04-26T04:39:11.191Z,99204.89
2019-04-26T04:44:32.144Z,99198.78
2019-04-26T04:50:09.387Z,99196.05
2019-04-26T04:55:39.646Z,99205.48
2019-04-26T05:01:39.245Z,99191.58
2019-04-26T05:07:13.746Z,99189.44
2019-04-26T05:12:59.501Z,99186.52
2019-04-26T05:18:56.308Z,99215.65
2019-04-26T05:24:34.311Z,99204.05
2019-04-26T05:30:05.574Z,99180.59
2019-04-26T05:35:37.679Z,99206.77
2019-04-26T05:41:08.135Z,99222.78
2019-04-26T05:47:08.004Z,99225.34
2019-04-26T05:52:58.028Z,99224.02
2019-04-26T05:58:25.378Z,99238.98
2019-04-26T06:04:23.275Z,99245.99
2019-04-26T06:10:13.648Z,99257.26
2019-04-26T06:15:39.908Z,99258.94
2019-04-26T06:21:13.755Z,99248.88
2019-04-26T06:26:39.848Z,99247.09
2019-04-26T06:32:18.915Z,99245.27
2019-04-26T06:38:03.986Z,99240.39
2019-04-26T06:43:30.127Z,99253.28
2019-04-26T06:49:05.467Z,99280.27
2019-04-26T06:54:30.462Z,99283.11
2019-04-26T06:59:54.730Z,99313.84
2019-04-26T07:05:22.091Z,99319.09
2019-04-26T07:10:46.508Z,99310.70
2019-04-26T07:16:32.232Z,99320.05
2019-04-26T07:22:18.018Z,99319.91
2019-04-26T07:27:42.322Z,99319.11
2019-04-26T07:33:12.712Z,99311.12
2019-04-26T07:39:17.717Z,99302.11
2019-04-26T07:44:33.550Z,99334.34
2019-04-26T07:50:26.688Z,99340.00
2019-04-26T07:55:48.290Z,99354.23
2019-04-26T08:01:20.329Z,99363.55
2019-04-26T08:07:06.395Z,99379.67
2019-04-26T08:12:27.900Z,99386.92
2019-04-26T08:17:53.886Z,99384.58
2019-04-26T08:23:37.525Z,99379.87
2019-04-26T08:28:38.434Z,99377.31
2019-04-26T08:34:01.591Z,99388.59
2019-04-26T08:39:24.582Z,99403.91
2019-04-26T08:44:58.162Z,99397.23
2019-04-26T08:50:28.515Z,99397.63
2019-04-26T08:55:48.584Z,99405.08
2019-04-26T09:01:20.183Z,99411.80
2019-04-26T09:06:49.503Z,99411.33
2019-04-26T09:12:23.018Z,99417.61
2019-04-26T09:17:34.228Z,99429.34
2019-04-26T09:23:03.754Z,99439.83
2019-04-26T09:28:30.513Z,99434.23
2019-04-26T09:33:53.735Z,99444.66
2019-04-26T09:39:12.826Z,99433.52
2019-04-26T09:44:37.574Z,99421.69
2019-04-26T09:50:03.928Z,99425.59
2019-04-26T09:55:34.560Z,99429.69
2019-04-26T10:00:44.054Z,99441.72
2019-04-26T10:06:07.990Z,99446.14
2019-04-26T10:11:27.062Z,99458.47
2019-04-26T10:16:50.288Z,99461.50
2019-04-26T10:22:08.968Z,99459.48
2019-04-26T10:27:27.652Z,99460.17
2019-04-26T10:32:46.539Z,99469.83
2019-04-26T10:38:05.158Z,99470.40
2019-04-26T10:43:23.762Z,99471.22
2019-04-26T10:48:45.440Z,99471.67
2019-04-26T10:54:05.906Z,99470.56
2019-04-26T10:59:32.435Z,99471.85
2019-04-26T11:04:51.149Z,99463.73
2019-04-26T11:10:10.316Z,99463.30
2019-04-26T11:15:29.206Z,99456.56
2019-04-26T11:20:49.315Z,99449.80
2019-04-26T11:26:07.956Z,99460.33
2019-04-26T11:31:27.702Z,99455.34
2019-04-26T11:36:46.825Z,99460.13
2019-04-26T11:42:07.984Z,99466.99
2019-04-26T11:47:25.985Z,99458.84
2019-04-26T11:52:44.611Z,99442.63
2019-04-26T11:58:03.168Z,99467.98
2019-04-26T12:03:24.937Z,99483.95
2019-04-26T12:08:55.864Z,99482.35
2019-04-26T12:14:20.406Z,99474.77
2019-04-26T12:19:34.821Z,99471.48
2019-04-26T12:24:53.425Z,99468.73
2019-04-26T12:30:12.963Z,99460.39
2019-04-26T12:35:31.586Z,99459.95
2019-04-26T12:40:51.645Z,99452.53
2019-04-26T12:46:15.203Z,99458.41
2019-04-26T12:51:33.823Z,99461.02
2019-04-26T12:56:52.479Z,99458.45
2019-04-26T13:02:11.263Z,99459.36
2019-04-26T13:07:29.877Z,99466.18
2019-04-26T13:12:52.866Z,99471.78
2019-04-26T13:18:12.073Z,99484.36
2019-04-26T13:23:31.304Z,99479.35
2019-04-26T13:28:52.468Z,99482.53
2019-04-26T13:34:10.471Z,99493.78
2019-04-26T13:39:29.069Z,99492.52
2019-04-26T13:45:01.185Z,99489.65
2019-04-26T13:50:28.343Z,99491.57
2019-04-26T13:55:47.012Z,99499.03
2019-04-26T14:01:05.999Z,99493.56
2019-04-26T14:06:24.618Z,99499.56
2019-04-26T14:11:43.255Z,99500.22
2019-04-26T14:17:03.907Z,99510.38
2019-04-26T14:22:24.091Z,99516.42
2019-04-26T14:27:49.943Z,99505.97
2019-04-26T14:33:07.110Z,99506.70
2019-04-26T14:38:28.027Z,99500.52
2019-04-26T14:43:46.137Z,99516.27
2019-04-26T14:49:05.810Z,99505.99
2019-04-26T14:54:24.368Z,99500.16
2019-04-26T14:59:57.875Z,99500.43
2019-04-26T15:05:19.541Z,99491.32
2019-04-26T15:10:45.948Z,99494.59
2019-04-26T15:16:04.818Z,99488.52
2019-04-26T15:21:20.612Z,99489.09
2019-04-26T15:26:39.294Z,99490.11
2019-04-26T15:31:58.353Z,99496.05
2019-04-26T15:37:20.305Z,99497.63
2019-04-26T15:42:58.747Z,99488.08
2019-04-26T15:48:23.221Z,99480.33
2019-04-26T15:53:43.472Z,99471.70
2019-04-26T15:59:02.635Z,99481.25
2019-04-26T16:04:22.225Z,99482.37
2019-04-26T16:09:43.571Z,99487.70
2019-04-26T16:15:06.543Z,99483.98
2019-04-26T16:20:24.938Z,99481.31
2019-04-26T16:25:43.828Z,99486.69
2019-04-26T16:31:13.881Z,99489.19
2019-04-26T16:36:36.479Z,99492.93
2019-04-26T16:41:53.082Z,99489.09
2019-04-26T16:47:13.240Z,99485.65
2019-04-26T16:52:33.706Z,99495.52
2019-04-26T16:57:55.584Z,99497.61
2019-04-26T17:03:12.845Z,99504.43
2019-04-26T17:08:31.469Z,99506.11
2019-04-26T17:13:53.458Z,99509.60
2019-04-26T17:19:13.716Z,99510.78
2019-04-26T17:24:34.226Z,99507.45
2019-04-26T17:29:52.939Z,99501.70
2019-04-26T17:35:11.580Z,99502.17
2019-04-26T17:40:36.177Z,99502.13
2019-04-26T17:45:51.630Z,99494.78
2019-04-26T17:51:18.398Z,99502.77
2019-04-26T17:56:34.760Z,99502.77
2019-04-26T18:01:57.298Z,99504.39
2019-04-26T18:07:36.120Z,99506.63
2019-04-26T18:12:38.998Z,99506.61
2019-04-26T18:17:54.522Z,99513.05
2019-04-26T18:23:18.562Z,99509.27
2019-04-26T18:28:35.175Z,99504.61
2019-04-26T18:33:54.797Z,99505.97
2019-04-26T18:39:14.035Z,99505.55
2019-04-26T18:44:38.428Z,99515.02
2019-04-26T18:49:58.276Z,99514.37
2019-04-26T18:55:16.344Z,99522.86
2019-04-26T19:00:36.771Z,99534.17
2019-04-26T19:05:58.547Z,99529.95
2019-04-26T19:11:16.240Z,99535.52
2019-04-26T19:16:36.497Z,99537.97
2019-04-26T19:22:01.532Z,99539.19
2019-04-26T19:27:22.380Z,99544.91
2019-04-26T19:32:41.167Z,99542.92
2019-04-26T19:37:59.867Z,99542.95
2019-04-26T19:43:30.318Z,99547.73
2019-04-26T19:48:56.729Z,99543.36
2019-04-26T19:54:35.634Z,99551.22
2019-04-26T19:59:49.215Z,99554.65
2019-04-26T20:05:09.741Z,99551.97
2019-04-26T20:10:28.346Z,99551.13
2019-04-26T20:15:46.962Z,99551.22
2019-04-26T20:21:06.561Z,99555.42
2019-04-26T20:26:26.027Z,99552.04
2019-04-26T20:31:55.556Z,99551.95
2019-04-26T20:37:16.196Z,99535.77
2019-04-26T20:42:34.613Z,99536.72
2019-04-26T20:47:55.670Z,99542.71
2019-04-26T20:53:13.814Z,99527.96
2019-04-26T20:58:32.384Z,99527.23
2019-04-26T21:03:51.753Z,99523.91
2019-04-26T21:09:12.123Z,99530.41
2019-04-26T21:14:31.591Z,99528.23
2019-04-26T21:19:54.949Z,99527.80
2019-04-26T21:25:15.903Z,99521.66
2019-04-26T21:30:38.557Z,99521.09
2019-04-26T21:36:15.809Z,99521.66
2019-04-26T21:41:36.002Z,99516.31
2019-04-26T21:46:58.706Z,99527.83
2019-04-26T21:52:15.265Z,99527.44
2019-04-26T21:57:35.020Z,99523.88
2019-04-26T22:02:53.632Z,99523.59
2019-04-26T22:08:17.356Z,99523.33
2019-04-26T22:13:44.855Z,99525.52
2019-04-26T22:19:05.116Z,99546.75
2019-04-26T22:24:31.113Z,99563.43
2019-04-26T22:29:51.898Z,99562.48
2019-04-26T22:35:13.387Z,99559.70
2019-04-26T22:40:30.933Z,99554.05
2019-04-26T22:45:53.988Z,99550.66
2019-04-26T22:51:14.027Z,99545.41
2019-04-26T22:56:37.011Z,99538.97
2019-04-26T23:01:53.713Z,99525.60
2019-04-26T23:07:13.655Z,99533.38
2019-04-26T23:12:50.104Z,99532.55
2019-04-26T23:18:19.581Z,99525.94
2019-04-26T23:23:40.980Z,99523.91
2019-04-26T23:28:58.456Z,99516.88
2019-04-26T23:34:16.976Z,99521.77
2019-04-26T23:39:35.452Z,99513.31
2019-04-26T23:44:54.079Z,99504.56
2019-04-26T23:50:14.075Z,99501.50
2019-04-26T23:55:33.811Z,99491.61
